createdAt,value
2023-03-22T00:00:37.525Z,52.47
2023-03-22T00:03:04.750Z,53.00
2023-03-22T00:05:31.917Z,52.88
2023-03-22T00:07:59.072Z,53.65
2023-03-22T00:10:29.055Z,54.68
2023-03-22T00:12:55.858Z,55.60
2023-03-22T00:15:22.687Z,56.82
2023-03-22T00:17:52.567Z,57.60
2023-03-22T00:20:20.848Z,57.41
2023-03-22T00:22:47.514Z,58.79
2023-03-22T00:25:17.606Z,58.62
2023-03-22T00:28:02.616Z,58.33
2023-03-22T00:30:29.190Z,58.65
2023-03-22T00:32:55.745Z,57.87
2023-03-22T00:35:22.359Z,58.46
2023-03-22T00:37:50.800Z,58.59
2023-03-22T00:40:18.418Z,58.72
2023-03-22T00:42:57.388Z,59.07
2023-03-22T00:45:23.941Z,58.24
2023-03-22T00:47:50.544Z,60.21
2023-03-22T00:50:17.197Z,60.08
2023-03-22T00:52:43.739Z,59.46
2023-03-22T00:55:32.444Z,61.37
2023-03-22T00:58:12.498Z,60.82
2023-03-22T01:00:39.256Z,59.52
2023-03-22T01:03:06.950Z,62.55
2023-03-22T01:05:35.037Z,62.13
2023-03-22T01:08:08.343Z,60.81
2023-03-22T01:10:38.992Z,60.58
2023-03-22T01:15:41.426Z,60.90
2023-03-22T01:18:09.160Z,61.02
2023-03-22T01:20:36.411Z,61.78
2023-03-22T01:23:04.033Z,61.10
2023-03-22T01:25:31.056Z,60.87
2023-03-22T01:28:04.040Z,60.64
2023-03-22T01:30:30.740Z,61.68
2023-03-22T01:33:07.698Z,60.75
2023-03-22T01:35:36.030Z,61.70
2023-03-22T01:38:03.612Z,60.92
2023-03-22T01:40:30.220Z,62.40
2023-03-22T01:42:56.943Z,63.53
2023-03-22T01:45:35.875Z,64.13
2023-03-22T01:48:31.390Z,63.91
2023-03-22T01:51:30.639Z,64.43
2023-03-22T01:54:03.977Z,65.13
2023-03-22T01:56:34.867Z,64.82
2023-03-22T01:59:02.380Z,65.45
2023-03-22T02:01:30.023Z,65.57
2023-03-22T02:04:23.441Z,66.48
2023-03-22T02:07:10.452Z,64.85
2023-03-22T02:09:41.385Z,65.37
2023-03-22T02:12:07.980Z,65.35
2023-03-22T02:15:06.867Z,66.17
2023-03-22T02:18:27.105Z,65.64
2023-03-22T02:21:23.921Z,65.63
2023-03-22T02:24:43.909Z,64.97
2023-03-22T02:27:10.546Z,65.58
2023-03-22T02:29:45.295Z,64.71
2023-03-22T02:32:11.853Z,66.09
2023-03-22T02:35:15.430Z,66.43
2023-03-22T02:38:15.357Z,67.64
2023-03-22T02:41:11.250Z,68.10
2023-03-22T02:44:34.966Z,66.82
2023-03-22T02:47:49.827Z,66.35
2023-03-22T02:50:24.950Z,67.69
2023-03-22T02:52:57.594Z,67.26
2023-03-22T02:55:27.441Z,67.37
2023-03-22T02:58:07.365Z,68.21
2023-03-22T03:00:38.879Z,67.53
2023-03-22T03:03:06.465Z,68.09
2023-03-22T03:05:33.878Z,66.96
2023-03-22T03:08:02.730Z,66.56
2023-03-22T03:10:29.878Z,67.69
2023-03-22T03:13:05.637Z,66.60
2023-03-22T03:15:59.083Z,66.84
2023-03-22T03:18:49.078Z,66.08
2023-03-22T03:21:35.916Z,66.21
2023-03-22T03:24:25.905Z,68.57
2023-03-22T03:27:02.470Z,66.61
2023-03-22T03:29:50.464Z,66.30
2023-03-22T03:35:08.672Z,66.70
2023-03-22T03:37:47.102Z,66.04
2023-03-22T03:40:20.319Z,67.19
2023-03-22T03:43:12.436Z,66.77
2023-03-22T03:45:40.279Z,66.90
2023-03-22T03:48:19.070Z,67.27
2023-03-22T03:50:48.317Z,67.67
2023-03-22T03:53:14.840Z,67.96
2023-03-22T03:55:41.468Z,68.32
2023-03-22T03:58:09.523Z,66.78
2023-03-22T04:00:37.074Z,66.23
2023-03-22T04:03:16.242Z,65.03
2023-03-22T04:05:43.254Z,64.86
2023-03-22T04:08:09.852Z,65.89
2023-03-22T04:10:36.448Z,65.40
2023-03-22T04:13:12.554Z,66.07
2023-03-22T04:15:58.087Z,66.28
2023-03-22T04:18:24.706Z,65.42
2023-03-22T04:20:53.556Z,64.71
2023-03-22T04:23:22.513Z,63.96
2023-03-22T04:25:50.356Z,64.86
2023-03-22T04:28:19.785Z,65.13
2023-03-22T04:30:50.969Z,65.32
2023-03-22T04:33:18.037Z,64.70
2023-03-22T04:35:46.349Z,63.91
2023-03-22T04:38:13.218Z,64.14
2023-03-22T04:40:46.485Z,64.39
2023-03-22T04:43:13.908Z,64.96
2023-03-22T04:45:42.165Z,65.07
2023-03-22T04:48:33.863Z,64.99
2023-03-22T04:51:18.810Z,65.03
2023-03-22T04:53:45.340Z,64.92
2023-03-22T04:56:13.875Z,65.52
2023-03-22T04:58:42.573Z,66.25
2023-03-22T05:01:10.755Z,65.63
2023-03-22T05:03:38.131Z,64.95
2023-03-22T05:06:07.384Z,64.65
2023-03-22T05:08:34.814Z,65.26
2023-03-22T05:11:11.873Z,64.44
2023-03-22T05:13:39.136Z,64.22
2023-03-22T05:16:06.561Z,64.35
2023-03-22T05:18:33.288Z,65.25
2023-03-22T05:23:43.232Z,64.97
2023-03-22T05:26:10.957Z,64.86
2023-03-22T05:28:37.636Z,63.99
2023-03-22T05:31:05.604Z,63.82
2023-03-22T05:33:32.286Z,64.04
2023-03-22T05:36:01.180Z,64.15
2023-03-22T05:38:29.224Z,64.70
2023-03-22T05:40:58.926Z,63.92
2023-03-22T05:43:25.622Z,63.80
2023-03-22T05:45:53.055Z,63.86
2023-03-22T05:48:19.658Z,64.04
2023-03-22T05:50:46.308Z,63.63
2023-03-22T05:53:12.903Z,62.76
2023-03-22T05:55:46.155Z,61.97
2023-03-22T05:58:12.993Z,61.31
2023-03-22T06:00:40.524Z,60.78
2023-03-22T06:03:08.236Z,60.11
2023-03-22T06:05:40.511Z,59.58
2023-03-22T06:08:07.197Z,58.96
2023-03-22T06:11:01.623Z,58.58
2023-03-22T06:13:28.413Z,58.04
2023-03-22T06:15:55.022Z,57.34
2023-03-22T06:18:21.602Z,56.51
2023-03-22T06:23:23.433Z,55.65
2023-03-22T06:25:50.499Z,54.73
2023-03-22T06:28:17.385Z,54.42
2023-03-22T06:30:43.995Z,54.26
2023-03-22T06:33:10.800Z,54.54
2023-03-22T06:35:37.449Z,54.26
2023-03-22T06:38:04.362Z,54.55
2023-03-22T06:40:30.913Z,53.59
2023-03-22T06:42:57.497Z,55.91
2023-03-22T06:45:24.033Z,54.72
2023-03-22T06:47:50.958Z,53.76
2023-03-22T06:50:17.745Z,52.76
2023-03-22T06:52:44.444Z,51.77
2023-03-22T06:57:46.277Z,51.52
2023-03-22T07:00:13.619Z,51.95
2023-03-22T07:02:40.242Z,51.53
2023-03-22T07:05:07.225Z,51.18
2023-03-22T07:07:33.816Z,50.42
2023-03-22T07:10:00.465Z,51.13
2023-03-22T07:12:27.675Z,51.23
2023-03-22T07:15:07.085Z,50.33
2023-03-22T07:17:33.711Z,49.00
2023-03-22T07:20:00.409Z,48.34
2023-03-22T07:22:27.362Z,47.72
2023-03-22T07:24:57.237Z,47.88
2023-03-22T07:27:25.485Z,47.73
2023-03-22T07:29:52.086Z,47.60
2023-03-22T07:32:19.580Z,46.41
2023-03-22T07:34:46.444Z,45.94
2023-03-22T07:37:13.237Z,47.14
2023-03-22T07:39:39.947Z,47.06
2023-03-22T07:42:06.901Z,47.50
2023-03-22T07:44:33.621Z,46.04
2023-03-22T07:47:00.236Z,44.67
2023-03-22T07:49:27.241Z,46.25
2023-03-22T07:51:53.898Z,46.86
2023-03-22T07:54:32.918Z,48.92
2023-03-22T07:57:01.804Z,48.46
2023-03-22T07:59:28.758Z,46.90
2023-03-22T08:01:55.683Z,46.33
2023-03-22T08:04:22.939Z,46.40
2023-03-22T08:06:50.120Z,45.59
2023-03-22T08:09:17.442Z,44.17
2023-03-22T08:11:44.031Z,43.14
2023-03-22T08:14:10.915Z,43.70
2023-03-22T08:16:38.453Z,44.73
2023-03-22T08:19:05.332Z,44.04
2023-03-22T08:21:31.901Z,43.95
2023-03-22T08:23:58.575Z,43.97
2023-03-22T08:26:25.516Z,43.24
2023-03-22T08:28:52.085Z,44.44
2023-03-22T08:31:20.212Z,44.32
2023-03-22T08:33:47.305Z,43.38
2023-03-22T08:36:16.900Z,43.08
2023-03-22T08:38:44.884Z,42.82
2023-03-22T08:41:13.093Z,42.96
2023-03-22T08:43:39.919Z,42.96
2023-03-22T08:46:06.567Z,42.27
2023-03-22T08:48:33.895Z,41.69
2023-03-22T08:51:01.119Z,40.73
2023-03-22T08:53:28.118Z,41.07
2023-03-22T08:55:58.054Z,40.46
2023-03-22T08:58:24.753Z,40.54
2023-03-22T09:00:51.674Z,40.63
2023-03-22T09:03:18.791Z,42.03
2023-03-22T09:05:45.476Z,40.87
2023-03-22T09:08:18.596Z,40.84
2023-03-22T09:10:51.838Z,41.31
2023-03-22T09:13:19.305Z,40.77
2023-03-22T09:15:46.032Z,41.37
2023-03-22T09:18:13.136Z,42.09
2023-03-22T09:20:40.320Z,41.04
2023-03-22T09:23:07.112Z,40.31
2023-03-22T09:25:33.916Z,40.92
2023-03-22T09:28:00.464Z,41.13
2023-03-22T09:30:27.316Z,41.00
2023-03-22T09:32:54.207Z,42.29
2023-03-22T09:35:21.410Z,42.38
2023-03-22T09:37:49.459Z,40.80
2023-03-22T09:40:17.754Z,41.30
2023-03-22T09:42:48.101Z,40.68
2023-03-22T09:47:54.331Z,41.46
2023-03-22T09:50:23.204Z,40.92
2023-03-22T09:52:50.985Z,40.72
2023-03-22T09:55:39.623Z,40.63
2023-03-22T09:58:43.832Z,40.49
2023-03-22T10:01:35.235Z,39.96
2023-03-22T10:04:26.286Z,39.12
2023-03-22T10:07:06.824Z,41.13
2023-03-22T10:09:45.266Z,40.08
2023-03-22T10:12:25.420Z,41.17
2023-03-22T10:15:12.911Z,39.60
2023-03-22T10:17:44.233Z,40.94
2023-03-22T10:20:41.744Z,41.42
2023-03-22T10:23:16.237Z,41.25
2023-03-22T10:25:43.732Z,40.23
2023-03-22T10:28:21.566Z,40.35
2023-03-22T10:30:54.618Z,39.62
2023-03-22T10:33:52.000Z,39.65
2023-03-22T10:36:23.810Z,39.76
2023-03-22T10:38:54.589Z,39.95
2023-03-22T10:41:24.373Z,39.66
2023-03-22T10:43:58.596Z,40.67
2023-03-22T10:46:29.977Z,40.25
2023-03-22T10:48:59.553Z,41.24
2023-03-22T10:52:20.332Z,41.30
2023-03-22T10:54:46.934Z,41.40
2023-03-22T10:57:13.523Z,42.17
2023-03-22T10:59:55.822Z,41.45
2023-03-22T11:02:28.166Z,41.79
2023-03-22T11:04:57.848Z,42.56
2023-03-22T11:07:32.700Z,42.48
2023-03-22T11:10:11.314Z,43.14
2023-03-22T11:12:42.201Z,42.56
2023-03-22T11:15:25.308Z,42.45
2023-03-22T11:17:53.583Z,45.13
2023-03-22T11:20:20.953Z,44.12
2023-03-22T11:22:49.461Z,42.83
2023-03-22T11:25:21.664Z,42.84
2023-03-22T11:27:56.175Z,42.13
2023-03-22T11:30:28.262Z,41.48
2023-03-22T11:33:00.835Z,41.86
2023-03-22T11:35:30.573Z,40.91
2023-03-22T11:37:58.399Z,40.43
2023-03-22T11:40:36.195Z,40.44
2023-03-22T11:43:20.699Z,41.27
2023-03-22T11:45:50.492Z,40.74
2023-03-22T11:48:27.384Z,40.32
2023-03-22T11:50:58.501Z,40.33
2023-03-22T11:53:27.570Z,39.94
2023-03-22T11:55:57.369Z,40.79
2023-03-22T11:59:00.104Z,40.57
2023-03-22T12:01:41.269Z,40.14
2023-03-22T12:04:13.853Z,40.65
2023-03-22T12:06:41.886Z,40.18
2023-03-22T12:09:39.545Z,39.46
2023-03-22T12:12:13.900Z,38.45
2023-03-22T12:15:13.151Z,39.27
2023-03-22T12:17:54.708Z,38.94
2023-03-22T12:20:40.897Z,38.75
2023-03-22T12:23:19.935Z,40.05
2023-03-22T12:25:58.501Z,39.42
2023-03-22T12:28:34.592Z,39.78
2023-03-22T12:31:03.736Z,40.08
2023-03-22T12:33:39.447Z,39.51
2023-03-22T12:36:07.808Z,38.09
2023-03-22T12:38:56.011Z,38.25
2023-03-22T12:41:32.212Z,37.91
2023-03-22T12:44:04.583Z,38.52
2023-03-22T12:46:49.282Z,37.69
2023-03-22T12:49:21.710Z,38.17
2023-03-22T12:51:50.265Z,37.49
2023-03-22T12:54:20.163Z,37.48
2023-03-22T12:56:47.561Z,36.71
2023-03-22T12:59:24.366Z,36.62
2023-03-22T13:01:54.156Z,36.74
2023-03-22T13:04:29.524Z,37.36
2023-03-22T13:07:18.069Z,37.94
2023-03-22T13:09:51.038Z,37.61
2023-03-22T13:12:17.546Z,36.97
2023-03-22T13:14:52.849Z,37.24
2023-03-22T13:17:22.353Z,36.86
2023-03-22T13:20:07.853Z,36.75
2023-03-22T13:22:43.220Z,36.19
2023-03-22T13:25:10.209Z,36.62
2023-03-22T13:27:45.845Z,35.29
2023-03-22T13:30:19.753Z,35.02
2023-03-22T13:33:08.658Z,34.50
2023-03-22T13:35:56.629Z,33.59
2023-03-22T13:38:30.710Z,33.60
2023-03-22T13:41:05.803Z,33.94
2023-03-22T13:43:52.064Z,34.26
2023-03-22T13:46:21.492Z,33.12
2023-03-22T13:48:48.655Z,33.42
2023-03-22T13:51:26.573Z,32.64
2023-03-22T13:54:24.275Z,33.52
2023-03-22T13:56:58.520Z,33.43
2023-03-22T13:59:28.023Z,33.66
2023-03-22T14:02:04.896Z,32.72
2023-03-22T14:04:53.124Z,32.59
2023-03-22T14:07:40.110Z,34.42
2023-03-22T14:10:15.979Z,34.13
2023-03-22T14:12:50.722Z,33.52
2023-03-22T14:15:20.402Z,34.17
2023-03-22T14:18:04.672Z,36.09
2023-03-22T14:20:35.794Z,35.41
